createdAt,value
2024-05-09T00:02:23.040Z,8.57
2024-05-09T00:04:53.030Z,9.02
2024-05-09T00:07:23.226Z,8.15
2024-05-09T00:09:52.867Z,9.07
2024-05-09T00:12:22.627Z,8.10
2024-05-09T00:14:52.276Z,8.25
2024-05-09T00:17:24.658Z,9.40
2024-05-09T00:19:54.423Z,8.68
2024-05-09T00:22:24.051Z,8.88
2024-05-09T00:24:53.685Z,8.88
2024-05-09T00:27:23.367Z,7.95
2024-05-09T00:29:53.009Z,7.65
2024-05-09T00:32:25.431Z,9.13
2024-05-09T00:34:55.256Z,8.25
2024-05-09T00:37:24.938Z,8.70
2024-05-09T00:39:54.596Z,8.40
2024-05-09T00:42:24.209Z,8.45
2024-05-09T00:44:53.835Z,9.48
2024-05-09T00:47:26.687Z,8.48
2024-05-09T00:49:56.721Z,8.65
2024-05-09T00:52:26.868Z,8.60
2024-05-09T00:54:57.438Z,7.88
2024-05-09T00:57:28.345Z,8.13
2024-05-09T00:59:58.535Z,9.23
2024-05-09T01:02:32.547Z,8.65
2024-05-09T01:05:02.572Z,9.43
2024-05-09T01:07:32.241Z,9.57
2024-05-09T01:10:01.875Z,8.77
2024-05-09T01:12:31.579Z,10.07
2024-05-09T01:15:01.267Z,9.68
2024-05-09T01:17:33.712Z,8.55
2024-05-09T01:20:06.243Z,9.27
2024-05-09T01:22:39.419Z,10.20
2024-05-09T01:25:11.914Z,10.02
2024-05-09T01:27:41.585Z,11.18
2024-05-09T01:30:17.273Z,10.07
2024-05-09T01:32:50.987Z,11.00
2024-05-09T01:35:23.795Z,11.10
2024-05-09T01:37:53.940Z,11.98
2024-05-09T01:40:36.178Z,11.38
2024-05-09T01:43:10.124Z,10.25
2024-05-09T01:45:41.457Z,11.70
2024-05-09T01:48:12.115Z,11.32
2024-05-09T01:50:43.206Z,10.65
2024-05-09T01:53:15.274Z,10.63
2024-05-09T01:55:47.759Z,12.13
2024-05-09T01:58:17.414Z,10.82
2024-05-09T02:00:47.293Z,12.05
2024-05-09T02:03:17.986Z,11.43
2024-05-09T02:05:50.046Z,12.40
2024-05-09T02:08:22.056Z,11.25
2024-05-09T02:10:54.597Z,10.77
2024-05-09T02:13:24.314Z,10.45
2024-05-09T02:15:53.931Z,12.23
2024-05-09T02:18:23.824Z,12.13
2024-05-09T02:20:53.673Z,11.77
2024-05-09T02:23:23.333Z,12.70
2024-05-09T02:25:55.641Z,12.32
2024-05-09T02:28:25.288Z,13.93
2024-05-09T02:30:54.903Z,12.60
2024-05-09T02:33:24.776Z,14.27
2024-05-09T02:35:54.502Z,12.88
2024-05-09T02:38:21.566Z,13.70
2024-05-09T02:40:48.642Z,13.02
2024-05-09T02:43:20.882Z,12.95
2024-05-09T02:45:47.933Z,15.30
2024-05-09T02:48:17.712Z,13.70
2024-05-09T02:50:45.120Z,13.20
2024-05-09T02:53:15.514Z,13.70
2024-05-09T02:55:43.247Z,13.38
2024-05-09T02:58:13.311Z,14.43
2024-05-09T03:00:43.287Z,13.77
2024-05-09T03:03:15.323Z,13.32
2024-05-09T03:05:43.781Z,12.98
2024-05-09T03:08:13.910Z,13.85
2024-05-09T03:10:41.332Z,13.30
2024-05-09T03:13:11.906Z,15.48
2024-05-09T03:15:42.846Z,15.27
2024-05-09T03:18:13.547Z,14.50
2024-05-09T03:20:41.106Z,14.23
2024-05-09T03:23:11.060Z,13.32
2024-05-09T03:25:38.362Z,14.38
2024-05-09T03:28:08.969Z,13.00
2024-05-09T03:30:41.289Z,15.63
2024-05-09T03:33:19.147Z,14.98
2024-05-09T03:35:47.904Z,14.57
2024-05-09T03:38:18.017Z,15.07
2024-05-09T03:40:49.407Z,14.00
2024-05-09T03:43:20.608Z,14.45
2024-05-09T03:45:48.867Z,13.68
2024-05-09T03:48:21.345Z,13.55
2024-05-09T03:50:48.997Z,14.07
2024-05-09T03:53:18.724Z,14.90
2024-05-09T03:55:45.892Z,14.13
2024-05-09T03:58:15.664Z,14.57
2024-05-09T04:00:42.812Z,14.23
2024-05-09T04:03:13.483Z,14.55
2024-05-09T04:05:44.581Z,14.07
2024-05-09T04:08:14.709Z,14.65
2024-05-09T04:10:42.068Z,15.10
2024-05-09T04:13:12.649Z,13.73
2024-05-09T04:15:39.805Z,13.80
2024-05-09T04:18:09.655Z,16.42
2024-05-09T04:20:39.748Z,15.10
2024-05-09T04:23:14.854Z,16.00
2024-05-09T04:25:43.543Z,14.35
2024-05-09T04:28:13.419Z,15.23
2024-05-09T04:30:41.693Z,13.90
2024-05-09T04:33:13.943Z,15.45
2024-05-09T04:35:42.732Z,14.40
2024-05-09T04:38:16.098Z,13.80
2024-05-09T04:40:43.618Z,15.25
2024-05-09T04:43:18.975Z,15.43
2024-05-09T04:45:46.355Z,15.40
2024-05-09T04:48:16.663Z,15.73
2024-05-09T04:50:44.175Z,15.77
2024-05-09T04:53:18.791Z,16.10
2024-05-09T04:55:45.989Z,15.30
2024-05-09T04:58:15.644Z,15.57
2024-05-09T05:00:42.822Z,15.65
2024-05-09T05:03:15.869Z,15.23
2024-05-09T05:05:45.239Z,15.45
2024-05-09T05:08:19.528Z,16.92
2024-05-09T05:10:48.530Z,14.00
2024-05-09T05:13:20.803Z,14.43
2024-05-09T05:15:50.050Z,15.30
2024-05-09T05:18:20.348Z,15.10
2024-05-09T05:20:48.171Z,14.90
2024-05-09T05:23:22.208Z,15.05
2024-05-09T05:25:51.068Z,15.43
2024-05-09T05:28:21.652Z,14.48
2024-05-09T05:30:48.767Z,13.80
2024-05-09T05:33:19.524Z,13.63
2024-05-09T05:35:47.020Z,12.68
2024-05-09T05:38:16.829Z,11.23
2024-05-09T05:40:46.566Z,11.57
2024-05-09T05:43:20.518Z,12.48
2024-05-09T05:45:47.595Z,11.38
2024-05-09T05:48:18.752Z,10.35
2024-05-09T05:50:46.222Z,11.38
2024-05-09T05:53:16.087Z,11.43
2024-05-09T05:55:43.296Z,11.52
2024-05-09T05:58:15.923Z,12.43
2024-05-09T06:00:43.318Z,11.52
2024-05-09T06:03:14.802Z,11.85
2024-05-09T06:05:43.998Z,11.13
2024-05-09T06:08:14.175Z,12.13
2024-05-09T06:10:42.193Z,10.57
2024-05-09T06:13:15.757Z,10.88
2024-05-09T06:15:43.651Z,11.32
2024-05-09T06:18:13.863Z,10.48
2024-05-09T06:20:43.032Z,11.25
2024-05-09T06:23:13.803Z,11.23
2024-05-09T06:25:42.055Z,12.10
2024-05-09T06:28:12.036Z,12.88
2024-05-09T06:30:43.040Z,10.95
2024-05-09T06:33:15.881Z,12.57
2024-05-09T06:35:44.048Z,12.73
2024-05-09T06:38:13.986Z,12.23
2024-05-09T06:40:43.660Z,12.93
2024-05-09T06:43:16.171Z,13.18
2024-05-09T06:45:48.602Z,11.80
2024-05-09T06:48:21.625Z,13.35
2024-05-09T06:50:49.981Z,14.65
2024-05-09T06:53:22.864Z,13.75
2024-05-09T06:55:50.309Z,15.23
2024-05-09T06:58:20.040Z,14.05
2024-05-09T07:00:49.724Z,12.52
2024-05-09T07:03:19.857Z,13.85
2024-05-09T07:05:48.636Z,12.32
2024-05-09T07:08:19.583Z,12.50
2024-05-09T07:10:46.962Z,11.82
2024-05-09T07:13:17.897Z,11.93
2024-05-09T07:15:45.093Z,11.80
2024-05-09T07:18:20.095Z,10.38
2024-05-09T07:20:49.311Z,11.23
2024-05-09T07:23:19.876Z,10.88
2024-05-09T07:25:47.194Z,12.05
2024-05-09T07:28:18.095Z,11.23
2024-05-09T07:30:45.469Z,10.13
2024-05-09T07:33:23.107Z,11.23
2024-05-09T07:35:51.593Z,11.93
2024-05-09T07:38:21.510Z,10.40
2024-05-09T07:40:48.942Z,10.13
2024-05-09T07:43:18.696Z,10.35
2024-05-09T07:45:52.391Z,10.30
2024-05-09T07:50:00.255Z,10.40
2024-05-09T07:53:51.336Z,9.85
2024-05-09T07:56:22.902Z,9.25
2024-05-09T07:58:54.606Z,9.60
2024-05-09T08:01:22.345Z,8.35
2024-05-09T08:03:55.292Z,8.95
2024-05-09T08:06:23.594Z,8.02
2024-05-09T08:08:53.219Z,8.63
2024-05-09T08:11:20.578Z,7.50
2024-05-09T08:13:50.201Z,8.48
2024-05-09T08:16:17.299Z,8.65
2024-05-09T08:18:47.064Z,8.43
2024-05-09T08:21:16.745Z,8.55
2024-05-09T08:23:46.339Z,8.48
2024-05-09T08:26:13.355Z,9.30
2024-05-09T08:28:42.962Z,8.27
2024-05-09T08:31:11.667Z,8.68
2024-05-09T08:33:47.016Z,9.00
2024-05-09T08:36:16.908Z,7.82
2024-05-09T08:38:46.510Z,7.63
2024-05-09T08:41:14.660Z,8.85
2024-05-09T08:43:44.374Z,9.65
2024-05-09T08:46:13.125Z,8.55
2024-05-09T08:48:44.787Z,8.68
2024-05-09T08:51:12.091Z,8.25
2024-05-09T08:53:44.384Z,9.00
2024-05-09T08:56:12.540Z,9.32
2024-05-09T08:58:43.218Z,7.65
2024-05-09T09:01:12.210Z,8.23
2024-05-09T09:03:42.989Z,7.72
2024-05-09T09:06:12.688Z,7.93
2024-05-09T09:08:45.080Z,7.63
2024-05-09T09:11:12.116Z,8.95
2024-05-09T09:13:41.835Z,8.50
2024-05-09T09:16:09.080Z,8.35
2024-05-09T09:18:39.042Z,8.10
2024-05-09T09:21:10.521Z,7.82
2024-05-09T09:23:44.216Z,6.90
2024-05-09T09:26:16.498Z,8.63
2024-05-09T09:28:46.340Z,7.05
2024-05-09T09:31:17.793Z,7.55
2024-05-09T09:33:47.817Z,8.45
2024-05-09T09:36:15.090Z,6.65
2024-05-09T09:38:50.926Z,7.03
2024-05-09T09:41:19.899Z,7.00
2024-05-09T09:43:50.452Z,6.13
2024-05-09T09:46:19.440Z,7.03
2024-05-09T09:48:50.588Z,7.75
2024-05-09T09:51:18.353Z,6.72
2024-05-09T09:53:53.133Z,7.15
2024-05-09T09:56:21.291Z,6.60
2024-05-09T09:58:51.514Z,6.15
2024-05-09T10:01:18.703Z,5.95
2024-05-09T10:03:48.639Z,5.32
2024-05-09T10:06:16.214Z,5.75
2024-05-09T10:08:47.777Z,6.05
2024-05-09T10:11:20.107Z,5.65
2024-05-09T10:13:49.814Z,6.05
2024-05-09T10:16:21.251Z,5.72
2024-05-09T10:18:51.277Z,6.22
2024-05-09T10:21:18.877Z,5.50
2024-05-09T10:23:59.895Z,5.28
2024-05-09T10:26:34.002Z,4.55
2024-05-09T10:29:04.691Z,4.50
2024-05-09T10:31:32.316Z,5.15
2024-05-09T10:34:03.582Z,5.20
2024-05-09T10:36:30.960Z,5.38
2024-05-09T10:39:02.156Z,5.22
2024-05-09T10:41:29.293Z,4.20
2024-05-09T10:44:01.519Z,4.20
2024-05-09T10:46:28.625Z,4.13
2024-05-09T10:49:04.215Z,4.38
2024-05-09T10:51:33.392Z,3.85
2024-05-09T10:54:03.367Z,4.05
2024-05-09T10:56:30.436Z,3.80
2024-05-09T10:59:02.638Z,4.65
2024-05-09T11:01:29.778Z,4.35
2024-05-09T11:03:59.710Z,5.05
2024-05-09T11:06:26.997Z,4.63
2024-05-09T11:08:57.181Z,3.90
2024-05-09T11:11:25.230Z,4.72
2024-05-09T11:13:54.897Z,4.70
2024-05-09T11:16:24.711Z,4.25
2024-05-09T11:18:58.931Z,3.78
2024-05-09T11:21:26.843Z,4.45
2024-05-09T11:23:56.615Z,4.40
2024-05-09T11:26:25.275Z,4.32
2024-05-09T11:28:55.070Z,4.70
2024-05-09T11:31:25.039Z,4.25
2024-05-09T11:33:57.087Z,4.43
2024-05-09T11:36:24.305Z,4.20
2024-05-09T11:38:54.154Z,4.63
2024-05-09T11:41:21.212Z,4.25
2024-05-09T11:43:50.830Z,3.78
2024-05-09T11:46:18.063Z,3.80
2024-05-09T11:48:50.585Z,3.35
2024-05-09T11:51:17.793Z,3.20
2024-05-09T11:53:47.442Z,3.80
2024-05-09T11:56:15.568Z,3.35
2024-05-09T11:58:45.258Z,2.90
2024-05-09T12:01:12.423Z,3.38
2024-05-09T12:03:42.374Z,4.82
2024-05-09T12:06:12.311Z,3.65
2024-05-09T12:08:42.045Z,3.45
2024-05-09T12:11:09.448Z,3.63
2024-05-09T12:13:39.145Z,3.05
2024-05-09T12:16:06.685Z,3.25
2024-05-09T12:18:36.457Z,2.97
2024-05-09T12:21:03.766Z,3.40
2024-05-09T12:23:35.975Z,3.00
2024-05-09T12:26:03.162Z,3.30
2024-05-09T12:28:32.907Z,3.03
2024-05-09T12:31:00.101Z,2.90
2024-05-09T12:33:29.858Z,3.10
2024-05-09T12:35:57.046Z,3.00
2024-05-09T12:38:26.650Z,2.92
2024-05-09T12:40:56.486Z,2.92
2024-05-09T12:43:26.576Z,3.00
2024-05-09T12:45:53.892Z,2.97
2024-05-09T12:48:23.685Z,3.13
2024-05-09T12:50:51.694Z,2.72
2024-05-09T12:53:21.428Z,2.75
2024-05-09T12:55:56.254Z,2.83
2024-05-09T12:58:31.969Z,2.70
2024-05-09T13:00:59.059Z,2.58
2024-05-09T13:03:28.927Z,3.10
2024-05-09T13:05:56.042Z,3.00
2024-05-09T13:08:25.797Z,2.55
2024-05-09T13:10:52.998Z,2.60
2024-05-09T13:13:22.795Z,2.80
2024-05-09T13:15:52.491Z,2.50
2024-05-09T13:18:22.221Z,2.75
2024-05-09T13:20:49.281Z,2.25
2024-05-09T13:23:18.932Z,2.40
2024-05-09T13:25:46.162Z,2.05
2024-05-09T13:28:16.118Z,2.90
2024-05-09T13:30:43.437Z,2.67
2024-05-09T13:33:16.068Z,2.67
2024-05-09T13:35:47.402Z,2.60
2024-05-09T13:38:21.760Z,2.58
2024-05-09T13:40:49.840Z,2.72
2024-05-09T13:43:22.095Z,2.42
2024-05-09T13:45:49.582Z,2.50
2024-05-09T13:48:21.960Z,2.83
2024-05-09T13:50:49.131Z,2.40
2024-05-09T13:53:18.826Z,2.80
2024-05-09T13:55:45.925Z,2.70
2024-05-09T13:58:15.769Z,2.60
2024-05-09T14:00:47.885Z,2.67
2024-05-09T14:03:21.618Z,2.60
2024-05-09T14:05:50.769Z,2.80
2024-05-09T14:08:22.462Z,2.70
2024-05-09T14:10:50.667Z,2.67
2024-05-09T14:13:20.629Z,2.67
2024-05-09T14:15:47.847Z,2.45
2024-05-09T14:18:17.662Z,2.33
2024-05-09T14:20:47.396Z,2.80
2024-05-09T14:23:17.212Z,2.40
2024-05-09T14:25:46.008Z,2.70
2024-05-09T14:28:16.978Z,2.50
2024-05-09T14:30:44.111Z,2.30
2024-05-09T14:33:16.344Z,2.20
2024-05-09T14:35:43.429Z,2.55
2024-05-09T14:38:15.716Z,2.72
2024-05-09T14:40:44.095Z,2.75
2024-05-09T14:43:15.162Z,2.55
2024-05-09T14:45:43.717Z,2.58
2024-05-09T14:48:14.806Z,3.05
2024-05-09T14:50:42.416Z,2.78
2024-05-09T14:53:15.594Z,2.50
2024-05-09T14:55:43.717Z,2.92
2024-05-09T14:58:14.540Z,2.67
2024-05-09T15:00:46.639Z,2.70
2024-05-09T15:03:20.607Z,3.30
2024-05-09T15:05:49.080Z,2.97
2024-05-09T15:08:22.396Z,2.42
2024-05-09T15:13:20.819Z,2.60
2024-05-09T15:15:48.324Z,2.58
2024-05-09T15:18:18.504Z,2.47
2024-05-09T15:20:46.122Z,2.95
2024-05-09T15:23:15.968Z,2.78
2024-05-09T15:25:45.724Z,2.63
2024-05-09T15:28:15.589Z,2.50
2024-05-09T15:30:46.186Z,2.22
2024-05-09T15:33:16.797Z,2.22
2024-05-09T15:35:46.269Z,2.10
2024-05-09T15:38:18.242Z,2.33
2024-05-09T15:40:48.477Z,2.50
2024-05-09T15:43:18.254Z,2.75
2024-05-09T15:45:45.618Z,2.60
2024-05-09T15:48:15.515Z,2.92
2024-05-09T15:50:43.236Z,2.67
2024-05-09T15:53:14.153Z,2.78
2024-05-09T15:55:41.833Z,2.38
2024-05-09T15:58:14.417Z,2.45
2024-05-09T16:00:44.754Z,2.80
2024-05-09T16:03:16.136Z,2.85
2024-05-09T16:05:44.591Z,2.30
2024-05-09T16:08:15.173Z,3.20
2024-05-09T16:10:44.652Z,2.55
2024-05-09T16:13:19.741Z,2.60
2024-05-09T16:15:47.240Z,2.10
2024-05-09T16:18:17.230Z,2.15
2024-05-09T16:20:46.344Z,2.88
2024-05-09T16:23:17.961Z,2.80
2024-05-09T16:25:46.046Z,2.63
2024-05-09T16:28:19.152Z,2.72
2024-05-09T16:33:19.445Z,2.25
2024-05-09T16:35:46.876Z,1.90
2024-05-09T16:38:16.585Z,2.25
2024-05-09T16:40:43.841Z,2.10
2024-05-09T16:43:14.761Z,2.38
2024-05-09T16:45:44.837Z,2.17
2024-05-09T16:48:15.019Z,2.30
2024-05-09T16:50:42.391Z,2.38
2024-05-09T16:53:13.634Z,2.72
2024-05-09T16:55:40.669Z,2.53
2024-05-09T16:58:12.484Z,2.60
2024-05-09T17:00:42.800Z,2.58
2024-05-09T17:03:17.017Z,2.83
2024-05-09T17:08:18.692Z,2.55
2024-05-09T17:10:46.441Z,2.42
2024-05-09T17:13:16.591Z,2.38
2024-05-09T17:15:46.385Z,2.40
2024-05-09T17:18:19.133Z,2.50
2024-05-09T17:20:46.302Z,2.55
2024-05-09T17:23:15.954Z,2.72
2024-05-09T17:25:43.210Z,2.45
2024-05-09T17:28:13.556Z,2.10
2024-05-09T17:30:42.288Z,2.30
2024-05-09T17:33:13.687Z,2.42
2024-05-09T17:35:45.885Z,2.38
2024-05-09T17:38:15.846Z,2.55
2024-05-09T17:40:43.075Z,1.92
2024-05-09T17:43:12.916Z,2.55
2024-05-09T17:45:41.269Z,2.10
2024-05-09T17:48:12.515Z,2.05
2024-05-09T17:50:40.215Z,2.20
2024-05-09T17:53:13.384Z,2.05
2024-05-09T17:55:40.832Z,2.00
2024-05-09T17:58:11.032Z,2.50
2024-05-09T18:00:41.153Z,2.17
2024-05-09T18:03:14.012Z,2.58
2024-05-09T18:05:42.961Z,2.80
2024-05-09T18:08:16.567Z,2.75
2024-05-09T18:10:44.367Z,2.47
2024-05-09T18:13:15.814Z,2.97
2024-05-09T18:15:43.554Z,3.00
2024-05-09T18:18:14.520Z,3.00
2024-05-09T18:20:45.254Z,5.35
2024-05-09T18:23:19.799Z,3.58
2024-05-09T18:25:47.436Z,4.82
2024-05-09T18:28:18.402Z,4.07
2024-05-09T18:30:45.823Z,4.00
2024-05-09T18:33:16.335Z,3.75
2024-05-09T18:35:44.060Z,3.03
2024-05-09T18:38:13.814Z,4.07
2024-05-09T18:40:46.093Z,3.38
2024-05-09T18:43:19.022Z,3.40
2024-05-09T18:45:49.100Z,3.35
2024-05-09T18:48:18.843Z,3.40
2024-05-09T18:50:46.056Z,3.85
2024-05-09T18:53:17.007Z,5.35
2024-05-09T18:55:46.669Z,7.50
2024-05-09T18:58:17.179Z,6.47
2024-05-09T19:00:46.694Z,5.40
2024-05-09T19:03:19.081Z,5.65
2024-05-09T19:05:46.710Z,5.95
2024-05-09T19:08:17.142Z,5.30
2024-05-09T19:10:46.919Z,4.93
2024-05-09T19:13:16.897Z,4.22
2024-05-09T19:15:44.575Z,4.20
2024-05-09T19:18:15.637Z,4.05
2024-05-09T19:20:43.188Z,4.65
2024-05-09T19:23:13.396Z,6.03
2024-05-09T19:25:40.646Z,6.03
2024-05-09T19:28:13.001Z,8.43
2024-05-09T19:30:42.285Z,6.32
2024-05-09T19:33:14.016Z,5.05
2024-05-09T19:35:41.821Z,5.70
2024-05-09T19:38:11.823Z,7.30
2024-05-09T19:40:39.054Z,7.60
2024-05-09T19:43:08.992Z,7.78
2024-05-09T19:45:38.996Z,7.13
2024-05-09T19:48:09.612Z,5.88
2024-05-09T19:50:42.292Z,5.20
2024-05-09T19:53:14.432Z,4.90
2024-05-09T19:55:41.990Z,4.38
2024-05-09T19:58:12.946Z,5.15
2024-05-09T20:00:44.278Z,5.00
2024-05-09T20:03:16.185Z,5.47
2024-05-09T20:05:45.910Z,4.88
2024-05-09T20:08:16.226Z,5.85
2024-05-09T20:10:43.682Z,5.15
2024-05-09T20:13:13.535Z,4.97
2024-05-09T20:15:43.351Z,4.20
2024-05-09T20:18:13.304Z,4.10
2024-05-09T20:20:42.991Z,3.53
2024-05-09T20:23:15.016Z,4.40
2024-05-09T20:25:42.508Z,4.43
2024-05-09T20:28:12.382Z,4.40
2024-05-09T20:30:42.247Z,4.47
2024-05-09T20:33:12.570Z,4.30
2024-05-09T20:35:40.055Z,4.47
2024-05-09T20:38:09.688Z,3.63
2024-05-09T20:40:38.982Z,4.03
2024-05-09T20:43:11.023Z,4.25
2024-05-09T20:45:38.892Z,11.95
2024-05-09T20:48:12.247Z,6.90
2024-05-09T20:50:41.906Z,10.82
2024-05-09T20:53:14.613Z,8.80
2024-05-09T20:55:42.835Z,5.93
2024-05-09T20:58:13.216Z,4.75
2024-05-09T21:00:43.955Z,4.60
2024-05-09T21:03:18.341Z,4.90
2024-05-09T21:05:46.365Z,4.70
2024-05-09T21:08:16.610Z,5.13
2024-05-09T21:10:43.794Z,5.55
2024-05-09T21:13:13.927Z,4.40
2024-05-09T21:15:41.161Z,4.22
2024-05-09T21:18:10.884Z,4.10
2024-05-09T21:20:40.593Z,3.35
2024-05-09T21:23:10.326Z,3.95
2024-05-09T21:25:37.399Z,3.67
2024-05-09T21:28:07.412Z,4.28
2024-05-09T21:30:41.355Z,3.13
2024-05-09T21:33:14.680Z,3.70
2024-05-09T21:35:47.796Z,4.53
2024-05-09T21:38:15.324Z,4.25
2024-05-09T21:40:45.730Z,8.18
2024-05-09T21:43:12.947Z,8.07
2024-05-09T21:45:42.786Z,5.50
2024-05-09T21:48:12.508Z,5.28
2024-05-09T21:50:42.693Z,4.97
2024-05-09T21:53:13.441Z,4.65
2024-05-09T21:55:43.888Z,4.65
2024-05-09T21:58:11.982Z,4.30
2024-05-09T22:00:42.960Z,4.45
2024-05-09T22:03:11.200Z,4.50
2024-05-09T22:05:43.509Z,6.65
2024-05-09T22:08:13.490Z,6.38
2024-05-09T22:10:43.209Z,6.80
2024-05-09T22:13:10.704Z,6.20
2024-05-09T22:15:41.474Z,5.88
2024-05-09T22:18:10.147Z,6.65
2024-05-09T22:20:45.118Z,6.00
2024-05-09T22:23:15.988Z,6.75
2024-05-09T22:25:45.716Z,6.97
2024-05-09T22:28:14.858Z,6.25
2024-05-09T22:30:47.022Z,6.13
2024-05-09T22:33:15.277Z,5.95
2024-05-09T22:35:45.421Z,5.57
2024-05-09T22:38:15.151Z,5.43
2024-05-09T22:40:48.454Z,5.95
2024-05-09T22:43:18.840Z,6.15
2024-05-09T22:45:50.137Z,6.05
2024-05-09T22:48:17.590Z,5.50
2024-05-09T22:50:47.607Z,7.00
2024-05-09T22:53:18.168Z,6.57
2024-05-09T22:55:47.801Z,6.60
2024-05-09T22:58:14.892Z,7.00
2024-05-09T23:00:44.749Z,6.63
2024-05-09T23:03:11.912Z,7.00
2024-05-09T23:05:41.518Z,7.68
2024-05-09T23:08:09.014Z,6.20
2024-05-09T23:10:41.276Z,6.88
2024-05-09T23:13:08.782Z,7.82
2024-05-09T23:15:39.492Z,7.63
2024-05-09T23:18:08.482Z,8.88
2024-05-09T23:20:39.966Z,7.65
2024-05-09T23:23:08.352Z,8.80
2024-05-09T23:25:40.939Z,7.75
2024-05-09T23:28:10.873Z,6.97
2024-05-09T23:30:41.809Z,6.72
2024-05-09T23:33:10.629Z,6.43
2024-05-09T23:35:40.594Z,6.03
2024-05-09T23:38:07.625Z,6.10
2024-05-09T23:43:12.223Z,6.03
2024-05-09T23:45:42.864Z,5.63
2024-05-09T23:48:10.313Z,6.60
2024-05-09T23:50:40.935Z,5.72
2024-05-09T23:53:09.663Z,6.38
2024-05-09T23:55:40.079Z,6.03
2024-05-09T23:58:07.530Z,5.38
